sensor_id;sensor_type;location;lat;lon;timestamp;P1;durP1;ratioP1;P2;durP2;ratioP2
61962;SDS011;47927;42.646;23.096;2023-03-19T00:01:25;7.20;;;3.05;;
61962;SDS011;47927;42.646;23.096;2023-03-19T00:03:51;7.25;;;2.78;;
61962;SDS011;47927;42.646;23.096;2023-03-19T00:06:16;6.55;;;2.75;;
61962;SDS011;47927;42.646;23.096;2023-03-19T00:08:42;11.35;;;2.17;;
61962;SDS011;47927;42.646;23.096;2023-03-19T00:11:08;7.28;;;2.35;;
61962;SDS011;47927;42.646;23.096;2023-03-19T00:13:35;6.68;;;2.38;;
61962;SDS011;47927;42.646;23.096;2023-03-19T00:16:01;5.35;;;2.97;;
61962;SDS011;47927;42.646;23.096;2023-03-19T00:18:26;7.70;;;3.15;;
61962;SDS011;47927;42.646;23.096;2023-03-19T00:20:52;6.88;;;2.60;;
61962;SDS011;47927;42.646;23.096;2023-03-19T00:23:17;7.60;;;2.80;;
61962;SDS011;47927;42.646;23.096;2023-03-19T00:25:43;6.10;;;3.28;;
61962;SDS011;47927;42.646;23.096;2023-03-19T00:28:08;7.68;;;2.55;;
61962;SDS011;47927;42.646;23.096;2023-03-19T00:30:53;6.45;;;2.80;;
61962;SDS011;47927;42.646;23.096;2023-03-19T00:33:18;7.20;;;3.08;;
61962;SDS011;47927;42.646;23.096;2023-03-19T00:35:44;7.82;;;2.58;;
61962;SDS011;47927;42.646;23.096;2023-03-19T00:38:10;7.32;;;2.83;;
61962;SDS011;47927;42.646;23.096;2023-03-19T00:40:36;8.25;;;3.72;;
61962;SDS011;47927;42.646;23.096;2023-03-19T00:43:02;7.57;;;3.40;;
61962;SDS011;47927;42.646;23.096;2023-03-19T00:45:28;7.20;;;3.72;;
61962;SDS011;47927;42.646;23.096;2023-03-19T00:47:55;8.35;;;3.75;;
61962;SDS011;47927;42.646;23.096;2023-03-19T00:50:22;6.38;;;3.58;;
61962;SDS011;47927;42.646;23.096;2023-03-19T00:52:49;9.85;;;3.65;;
61962;SDS011;47927;42.646;23.096;2023-03-19T00:55:16;7.43;;;4.03;;
61962;SDS011;47927;42.646;23.096;2023-03-19T00:57:42;5.60;;;2.83;;
61962;SDS011;47927;42.646;23.096;2023-03-19T01:00:07;6.10;;;2.53;;
61962;SDS011;47927;42.646;23.096;2023-03-19T01:02:35;4.53;;;2.05;;
61962;SDS011;47927;42.646;23.096;2023-03-19T01:05:00;6.80;;;2.40;;
61962;SDS011;47927;42.646;23.096;2023-03-19T01:07:26;4.45;;;2.28;;
61962;SDS011;47927;42.646;23.096;2023-03-19T01:09:51;5.93;;;2.13;;
61962;SDS011;47927;42.646;23.096;2023-03-19T01:12:17;6.93;;;2.83;;
61962;SDS011;47927;42.646;23.096;2023-03-19T01:14:43;5.43;;;2.55;;
61962;SDS011;47927;42.646;23.096;2023-03-19T01:17:09;5.20;;;2.58;;
61962;SDS011;47927;42.646;23.096;2023-03-19T01:19:35;7.35;;;2.25;;
61962;SDS011;47927;42.646;23.096;2023-03-19T01:22:00;5.70;;;3.00;;
61962;SDS011;47927;42.646;23.096;2023-03-19T01:24:30;6.15;;;2.38;;
61962;SDS011;47927;42.646;23.096;2023-03-19T01:26:56;4.00;;;2.05;;
61962;SDS011;47927;42.646;23.096;2023-03-19T01:29:28;5.03;;;2.38;;
61962;SDS011;47927;42.646;23.096;2023-03-19T01:31:56;6.35;;;3.45;;
61962;SDS011;47927;42.646;23.096;2023-03-19T01:34:57;4.70;;;2.45;;
61962;SDS011;47927;42.646;23.096;2023-03-19T01:37:22;7.78;;;2.92;;
61962;SDS011;47927;42.646;23.096;2023-03-19T01:39:49;4.50;;;1.95;;
61962;SDS011;47927;42.646;23.096;2023-03-19T01:42:15;4.55;;;1.95;;
61962;SDS011;47927;42.646;23.096;2023-03-19T01:45:01;4.68;;;1.77;;
61962;SDS011;47927;42.646;23.096;2023-03-19T01:47:46;4.43;;;2.17;;
61962;SDS011;47927;42.646;23.096;2023-03-19T01:50:25;4.13;;;1.67;;
61962;SDS011;47927;42.646;23.096;2023-03-19T01:53:15;5.32;;;2.17;;
61962;SDS011;47927;42.646;23.096;2023-03-19T01:55:47;5.20;;;2.10;;
61962;SDS011;47927;42.646;23.096;2023-03-19T01:58:40;5.47;;;2.50;;
61962;SDS011;47927;42.646;23.096;2023-03-19T02:01:31;4.38;;;1.92;;
61962;SDS011;47927;42.646;23.096;2023-03-19T02:04:00;4.63;;;2.28;;
61962;SDS011;47927;42.646;23.096;2023-03-19T02:06:28;7.13;;;3.05;;
61962;SDS011;47927;42.646;23.096;2023-03-19T02:08:55;5.50;;;2.28;;
61962;SDS011;47927;42.646;23.096;2023-03-19T02:11:22;4.57;;;2.42;;
61962;SDS011;47927;42.646;23.096;2023-03-19T02:13:48;4.32;;;2.00;;
61962;SDS011;47927;42.646;23.096;2023-03-19T02:16:14;3.63;;;1.70;;
61962;SDS011;47927;42.646;23.096;2023-03-19T02:18:40;3.60;;;1.90;;
61962;SDS011;47927;42.646;23.096;2023-03-19T02:21:13;4.88;;;1.65;;
61962;SDS011;47927;42.646;23.096;2023-03-19T02:26:18;6.00;;;2.13;;
61962;SDS011;47927;42.646;23.096;2023-03-19T02:28:48;5.10;;;2.72;;
61962;SDS011;47927;42.646;23.096;2023-03-19T02:31:21;4.93;;;1.60;;
61962;SDS011;47927;42.646;23.096;2023-03-19T02:36:23;4.53;;;2.40;;
61962;SDS011;47927;42.646;23.096;2023-03-19T02:38:59;4.60;;;1.63;;
61962;SDS011;47927;42.646;23.096;2023-03-19T02:43:55;4.47;;;1.77;;
61962;SDS011;47927;42.646;23.096;2023-03-19T02:46:24;5.50;;;2.15;;
61962;SDS011;47927;42.646;23.096;2023-03-19T02:48:50;6.47;;;2.53;;
61962;SDS011;47927;42.646;23.096;2023-03-19T02:51:16;4.90;;;2.33;;
61962;SDS011;47927;42.646;23.096;2023-03-19T02:53:44;4.70;;;1.90;;
61962;SDS011;47927;42.646;23.096;2023-03-19T02:56:10;7.80;;;1.95;;
61962;SDS011;47927;42.646;23.096;2023-03-19T02:58:35;5.20;;;1.80;;
61962;SDS011;47927;42.646;23.096;2023-03-19T03:01:01;3.58;;;1.55;;
61962;SDS011;47927;42.646;23.096;2023-03-19T03:03:27;5.22;;;2.20;;
61962;SDS011;47927;42.646;23.096;2023-03-19T03:05:53;4.75;;;2.00;;
61962;SDS011;47927;42.646;23.096;2023-03-19T03:08:19;5.00;;;1.92;;
61962;SDS011;47927;42.646;23.096;2023-03-19T03:10:45;5.35;;;2.40;;
61962;SDS011;47927;42.646;23.096;2023-03-19T03:13:10;5.55;;;2.47;;
61962;SDS011;47927;42.646;23.096;2023-03-19T03:15:36;7.05;;;2.22;;
61962;SDS011;47927;42.646;23.096;2023-03-19T03:18:03;13.70;;;2.38;;
61962;SDS011;47927;42.646;23.096;2023-03-19T03:20:29;4.95;;;2.33;;
61962;SDS011;47927;42.646;23.096;2023-03-19T03:22:54;6.20;;;2.33;;
61962;SDS011;47927;42.646;23.096;2023-03-19T03:25:20;5.70;;;2.17;;
61962;SDS011;47927;42.646;23.096;2023-03-19T03:27:46;5.22;;;2.38;;
61962;SDS011;47927;42.646;23.096;2023-03-19T03:30:12;7.28;;;3.47;;
61962;SDS011;47927;42.646;23.096;2023-03-19T03:32:40;6.55;;;2.78;;
61962;SDS011;47927;42.646;23.096;2023-03-19T03:35:07;4.80;;;2.80;;
61962;SDS011;47927;42.646;23.096;2023-03-19T03:37:33;6.57;;;2.78;;
61962;SDS011;47927;42.646;23.096;2023-03-19T03:39:59;6.13;;;2.85;;
61962;SDS011;47927;42.646;23.096;2023-03-19T03:42:25;11.07;;;4.07;;
61962;SDS011;47927;42.646;23.096;2023-03-19T03:44:51;16.25;;;3.95;;
61962;SDS011;47927;42.646;23.096;2023-03-19T03:47:16;6.82;;;3.40;;
61962;SDS011;47927;42.646;23.096;2023-03-19T03:49:42;9.07;;;3.65;;
61962;SDS011;47927;42.646;23.096;2023-03-19T03:52:08;8.63;;;2.70;;
61962;SDS011;47927;42.646;23.096;2023-03-19T03:54:34;6.38;;;2.80;;
61962;SDS011;47927;42.646;23.096;2023-03-19T03:57:00;9.35;;;2.88;;
61962;SDS011;47927;42.646;23.096;2023-03-19T03:59:26;12.18;;;3.03;;
61962;SDS011;47927;42.646;23.096;2023-03-19T04:01:52;6.07;;;2.63;;
61962;SDS011;47927;42.646;23.096;2023-03-19T04:04:17;6.53;;;2.92;;
61962;SDS011;47927;42.646;23.096;2023-03-19T04:06:44;6.70;;;2.10;;
61962;SDS011;47927;42.646;23.096;2023-03-19T04:09:17;9.50;;;2.42;;
61962;SDS011;47927;42.646;23.096;2023-03-19T04:11:42;5.57;;;2.65;;
61962;SDS011;47927;42.646;23.096;2023-03-19T04:14:08;6.63;;;2.63;;
61962;SDS011;47927;42.646;23.096;2023-03-19T04:16:36;6.85;;;2.00;;
61962;SDS011;47927;42.646;23.096;2023-03-19T04:19:02;5.22;;;1.95;;
61962;SDS011;47927;42.646;23.096;2023-03-19T04:21:27;5.97;;;2.30;;
61962;SDS011;47927;42.646;23.096;2023-03-19T04:23:53;7.25;;;2.50;;
61962;SDS011;47927;42.646;23.096;2023-03-19T04:26:19;3.60;;;1.65;;
61962;SDS011;47927;42.646;23.096;2023-03-19T04:28:45;3.72;;;1.73;;
61962;SDS011;47927;42.646;23.096;2023-03-19T04:31:11;4.10;;;2.40;;
61962;SDS011;47927;42.646;23.096;2023-03-19T04:33:41;6.15;;;2.50;;
61962;SDS011;47927;42.646;23.096;2023-03-19T04:36:07;5.15;;;2.50;;
61962;SDS011;47927;42.646;23.096;2023-03-19T04:38:34;7.82;;;2.35;;
61962;SDS011;47927;42.646;23.096;2023-03-19T04:41:00;8.65;;;3.10;;
61962;SDS011;47927;42.646;23.096;2023-03-19T04:43:26;6.45;;;2.72;;
61962;SDS011;47927;42.646;23.096;2023-03-19T04:45:53;5.18;;;2.67;;
61962;SDS011;47927;42.646;23.096;2023-03-19T04:48:20;9.43;;;2.53;;
61962;SDS011;47927;42.646;23.096;2023-03-19T04:50:48;5.35;;;2.72;;
61962;SDS011;47927;42.646;23.096;2023-03-19T04:53:35;5.82;;;2.30;;
61962;SDS011;47927;42.646;23.096;2023-03-19T04:56:03;5.75;;;2.63;;
61962;SDS011;47927;42.646;23.096;2023-03-19T04:58:29;4.53;;;2.33;;
61962;SDS011;47927;42.646;23.096;2023-03-19T05:00:59;4.53;;;2.33;;
61962;SDS011;47927;42.646;23.096;2023-03-19T05:03:45;6.55;;;2.90;;
61962;SDS011;47927;42.646;23.096;2023-03-19T05:06:11;8.27;;;3.42;;
61962;SDS011;47927;42.646;23.096;2023-03-19T05:08:37;11.88;;;3.95;;
61962;SDS011;47927;42.646;23.096;2023-03-19T05:11:02;9.13;;;3.70;;
61962;SDS011;47927;42.646;23.096;2023-03-19T05:13:37;12.10;;;3.97;;
61962;SDS011;47927;42.646;23.096;2023-03-19T05:16:02;5.30;;;3.03;;
61962;SDS011;47927;42.646;23.096;2023-03-19T05:18:29;7.18;;;3.38;;
61962;SDS011;47927;42.646;23.096;2023-03-19T05:20:55;7.93;;;4.20;;
61962;SDS011;47927;42.646;23.096;2023-03-19T05:23:21;16.65;;;9.45;;
61962;SDS011;47927;42.646;23.096;2023-03-19T05:25:57;10.38;;;5.45;;
61962;SDS011;47927;42.646;23.096;2023-03-19T05:28:44;4.77;;;3.07;;
61962;SDS011;47927;42.646;23.096;2023-03-19T05:31:11;6.70;;;3.63;;
61962;SDS011;47927;42.646;23.096;2023-03-19T05:33:43;8.07;;;5.15;;
61962;SDS011;47927;42.646;23.096;2023-03-19T05:36:10;9.48;;;5.07;;
61962;SDS011;47927;42.646;23.096;2023-03-19T05:38:59;11.13;;;8.30;;
61962;SDS011;47927;42.646;23.096;2023-03-19T05:41:44;16.33;;;9.98;;
61962;SDS011;47927;42.646;23.096;2023-03-19T05:44:15;15.95;;;11.25;;
61962;SDS011;47927;42.646;23.096;2023-03-19T05:47:10;13.25;;;10.05;;
61962;SDS011;47927;42.646;23.096;2023-03-19T05:49:39;11.45;;;9.43;;
61962;SDS011;47927;42.646;23.096;2023-03-19T05:52:04;9.43;;;6.75;;
61962;SDS011;47927;42.646;23.096;2023-03-19T05:54:30;8.75;;;6.63;;
61962;SDS011;47927;42.646;23.096;2023-03-19T05:57:17;10.63;;;6.00;;
61962;SDS011;47927;42.646;23.096;2023-03-19T05:59:56;9.98;;;6.20;;
61962;SDS011;47927;42.646;23.096;2023-03-19T06:02:30;10.88;;;6.05;;
61962;SDS011;47927;42.646;23.096;2023-03-19T06:05:15;15.13;;;7.10;;
61962;SDS011;47927;42.646;23.096;2023-03-19T06:07:41;14.48;;;8.52;;
61962;SDS011;47927;42.646;23.096;2023-03-19T06:10:13;11.75;;;7.40;;
61962;SDS011;47927;42.646;23.096;2023-03-19T06:12:39;11.98;;;7.65;;
61962;SDS011;47927;42.646;23.096;2023-03-19T06:15:24;16.58;;;7.10;;
61962;SDS011;47927;42.646;23.096;2023-03-19T06:18:06;9.32;;;6.40;;
61962;SDS011;47927;42.646;23.096;2023-03-19T06:20:33;13.63;;;7.85;;
61962;SDS011;47927;42.646;23.096;2023-03-19T06:22:59;17.02;;;9.23;;
61962;SDS011;47927;42.646;23.096;2023-03-19T06:25:25;14.90;;;8.90;;
61962;SDS011;47927;42.646;23.096;2023-03-19T06:27:51;20.45;;;9.50;;
61962;SDS011;47927;42.646;23.096;2023-03-19T06:30:23;15.27;;;8.68;;
61962;SDS011;47927;42.646;23.096;2023-03-19T06:32:48;14.95;;;8.88;;
61962;SDS011;47927;42.646;23.096;2023-03-19T06:35:15;15.18;;;8.02;;
61962;SDS011;47927;42.646;23.096;2023-03-19T06:37:43;12.05;;;7.35;;
61962;SDS011;47927;42.646;23.096;2023-03-19T06:40:09;16.88;;;8.30;;
61962;SDS011;47927;42.646;23.096;2023-03-19T06:42:35;13.95;;;7.88;;
61962;SDS011;47927;42.646;23.096;2023-03-19T06:45:01;17.00;;;7.32;;
61962;SDS011;47927;42.646;23.096;2023-03-19T06:47:26;18.25;;;7.78;;
61962;SDS011;47927;42.646;23.096;2023-03-19T06:49:52;16.88;;;7.90;;
61962;SDS011;47927;42.646;23.096;2023-03-19T06:52:17;14.95;;;7.63;;
61962;SDS011;47927;42.646;23.096;2023-03-19T06:54:43;15.35;;;7.55;;
61962;SDS011;47927;42.646;23.096;2023-03-19T06:57:08;11.85;;;6.30;;
61962;SDS011;47927;42.646;23.096;2023-03-19T06:59:34;11.57;;;6.50;;
61962;SDS011;47927;42.646;23.096;2023-03-19T07:02:00;18.48;;;8.40;;
61962;SDS011;47927;42.646;23.096;2023-03-19T07:04:26;17.17;;;7.80;;
61962;SDS011;47927;42.646;23.096;2023-03-19T07:06:52;15.30;;;6.40;;
61962;SDS011;47927;42.646;23.096;2023-03-19T07:09:17;5.53;;;3.65;;
61962;SDS011;47927;42.646;23.096;2023-03-19T07:11:43;8.25;;;4.70;;
61962;SDS011;47927;42.646;23.096;2023-03-19T07:14:08;9.32;;;5.18;;
61962;SDS011;47927;42.646;23.096;2023-03-19T07:16:34;6.20;;;4.18;;
61962;SDS011;47927;42.646;23.096;2023-03-19T07:18:59;9.60;;;4.55;;
61962;SDS011;47927;42.646;23.096;2023-03-19T07:21:25;8.43;;;5.32;;
61962;SDS011;47927;42.646;23.096;2023-03-19T07:23:51;11.10;;;5.13;;
61962;SDS011;47927;42.646;23.096;2023-03-19T07:26:16;8.82;;;4.38;;
61962;SDS011;47927;42.646;23.096;2023-03-19T07:28:42;5.78;;;3.92;;
61962;SDS011;47927;42.646;23.096;2023-03-19T07:31:07;7.40;;;4.28;;
61962;SDS011;47927;42.646;23.096;2023-03-19T07:33:33;10.20;;;5.65;;
61962;SDS011;47927;42.646;23.096;2023-03-19T07:35:59;8.80;;;5.00;;
61962;SDS011;47927;42.646;23.096;2023-03-19T07:38:24;7.53;;;4.60;;
61962;SDS011;47927;42.646;23.096;2023-03-19T07:40:50;10.27;;;4.88;;
61962;SDS011;47927;42.646;23.096;2023-03-19T07:43:16;8.68;;;4.18;;
61962;SDS011;47927;42.646;23.096;2023-03-19T07:45:41;6.60;;;4.18;;
61962;SDS011;47927;42.646;23.096;2023-03-19T07:48:07;7.50;;;3.80;;
61962;SDS011;47927;42.646;23.096;2023-03-19T07:50:33;7.35;;;3.95;;
61962;SDS011;47927;42.646;23.096;2023-03-19T07:52:59;6.43;;;3.72;;
61962;SDS011;47927;42.646;23.096;2023-03-19T07:55:25;5.30;;;3.58;;
61962;SDS011;47927;42.646;23.096;2023-03-19T07:57:50;6.25;;;3.58;;
61962;SDS011;47927;42.646;23.096;2023-03-19T08:00:17;5.57;;;3.20;;
61962;SDS011;47927;42.646;23.096;2023-03-19T08:02:45;8.98;;;3.63;;
61962;SDS011;47927;42.646;23.096;2023-03-19T08:05:11;5.75;;;3.53;;
61962;SDS011;47927;42.646;23.096;2023-03-19T08:11:23;12.63;;;4.32;;
61962;SDS011;47927;42.646;23.096;2023-03-19T08:13:49;8.10;;;4.50;;
61962;SDS011;47927;42.646;23.096;2023-03-19T08:16:15;16.50;;;5.90;;
61962;SDS011;47927;42.646;23.096;2023-03-19T08:18:40;11.70;;;5.72;;
61962;SDS011;47927;42.646;23.096;2023-03-19T08:21:06;9.48;;;5.70;;
61962;SDS011;47927;42.646;23.096;2023-03-19T08:23:32;16.70;;;7.07;;
61962;SDS011;47927;42.646;23.096;2023-03-19T08:25:58;8.38;;;4.95;;
61962;SDS011;47927;42.646;23.096;2023-03-19T08:28:23;15.80;;;7.10;;
61962;SDS011;47927;42.646;23.096;2023-03-19T08:30:49;21.20;;;8.13;;
61962;SDS011;47927;42.646;23.096;2023-03-19T08:33:15;17.75;;;8.32;;
61962;SDS011;47927;42.646;23.096;2023-03-19T08:35:40;15.55;;;8.00;;
61962;SDS011;47927;42.646;23.096;2023-03-19T08:38:06;18.48;;;6.22;;
61962;SDS011;47927;42.646;23.096;2023-03-19T08:40:32;14.52;;;6.05;;
61962;SDS011;47927;42.646;23.096;2023-03-19T08:42:57;15.15;;;5.68;;
61962;SDS011;47927;42.646;23.096;2023-03-19T08:45:23;11.10;;;5.57;;
61962;SDS011;47927;42.646;23.096;2023-03-19T08:47:49;12.95;;;6.03;;
61962;SDS011;47927;42.646;23.096;2023-03-19T08:50:15;6.38;;;4.00;;
61962;SDS011;47927;42.646;23.096;2023-03-19T08:52:41;8.45;;;4.63;;
61962;SDS011;47927;42.646;23.096;2023-03-19T08:55:07;8.70;;;4.53;;
61962;SDS011;47927;42.646;23.096;2023-03-19T08:57:33;8.57;;;4.80;;
61962;SDS011;47927;42.646;23.096;2023-03-19T08:59:59;9.68;;;5.20;;
61962;SDS011;47927;42.646;23.096;2023-03-19T09:02:25;10.25;;;4.90;;
61962;SDS011;47927;42.646;23.096;2023-03-19T09:04:50;6.55;;;4.25;;
61962;SDS011;47927;42.646;23.096;2023-03-19T09:07:16;7.22;;;3.40;;
61962;SDS011;47927;42.646;23.096;2023-03-19T09:09:42;8.80;;;3.92;;
61962;SDS011;47927;42.646;23.096;2023-03-19T09:12:08;5.80;;;3.33;;
61962;SDS011;47927;42.646;23.096;2023-03-19T09:14:36;8.15;;;3.85;;
61962;SDS011;47927;42.646;23.096;2023-03-19T09:17:03;5.15;;;3.38;;
61962;SDS011;47927;42.646;23.096;2023-03-19T09:19:28;6.63;;;3.25;;
61962;SDS011;47927;42.646;23.096;2023-03-19T09:21:54;5.78;;;3.33;;
61962;SDS011;47927;42.646;23.096;2023-03-19T09:24:20;5.63;;;2.83;;
61962;SDS011;47927;42.646;23.096;2023-03-19T09:26:46;5.40;;;2.60;;
61962;SDS011;47927;42.646;23.096;2023-03-19T09:29:12;4.47;;;2.75;;
61962;SDS011;47927;42.646;23.096;2023-03-19T09:31:37;6.63;;;2.92;;
61962;SDS011;47927;42.646;23.096;2023-03-19T09:34:03;4.95;;;3.00;;
61962;SDS011;47927;42.646;23.096;2023-03-19T09:36:31;5.25;;;2.92;;
61962;SDS011;47927;42.646;23.096;2023-03-19T09:38:57;4.20;;;2.55;;
61962;SDS011;47927;42.646;23.096;2023-03-19T09:46:42;6.47;;;3.05;;
61962;SDS011;47927;42.646;23.096;2023-03-19T09:49:20;4.80;;;2.88;;
61962;SDS011;47927;42.646;23.096;2023-03-19T09:56:55;7.22;;;3.40;;
61962;SDS011;47927;42.646;23.096;2023-03-19T09:59:21;5.63;;;3.65;;
61962;SDS011;47927;42.646;23.096;2023-03-19T10:01:52;4.13;;;3.13;;
61962;SDS011;47927;42.646;23.096;2023-03-19T10:12:32;6.22;;;3.60;;
61962;SDS011;47927;42.646;23.096;2023-03-19T10:15:14;5.47;;;2.78;;
61962;SDS011;47927;42.646;23.096;2023-03-19T10:18:02;9.43;;;5.38;;
61962;SDS011;47927;42.646;23.096;2023-03-19T10:20:33;7.38;;;3.60;;
61962;SDS011;47927;42.646;23.096;2023-03-19T10:23:21;7.63;;;3.70;;
61962;SDS011;47927;42.646;23.096;2023-03-19T10:25:48;8.35;;;4.68;;
61962;SDS011;47927;42.646;23.096;2023-03-19T10:28:19;6.43;;;3.10;;
61962;SDS011;47927;42.646;23.096;2023-03-19T10:30:52;5.93;;;3.42;;
61962;SDS011;47927;42.646;23.096;2023-03-19T10:33:23;5.95;;;2.97;;
61962;SDS011;47927;42.646;23.096;2023-03-19T10:36:03;7.65;;;3.10;;
61962;SDS011;47927;42.646;23.096;2023-03-19T10:38:37;7.90;;;3.50;;
61962;SDS011;47927;42.646;23.096;2023-03-19T10:43:52;11.20;;;4.05;;
61962;SDS011;47927;42.646;23.096;2023-03-19T10:46:20;7.38;;;3.60;;
61962;SDS011;47927;42.646;23.096;2023-03-19T10:48:46;8.70;;;3.67;;
61962;SDS011;47927;42.646;23.096;2023-03-19T10:51:13;10.77;;;4.35;;
61962;SDS011;47927;42.646;23.096;2023-03-19T10:53:41;12.88;;;4.43;;
61962;SDS011;47927;42.646;23.096;2023-03-19T10:59:01;12.52;;;3.80;;
61962;SDS011;47927;42.646;23.096;2023-03-19T11:01:34;9.23;;;3.50;;
61962;SDS011;47927;42.646;23.096;2023-03-19T11:04:10;14.00;;;4.43;;
61962;SDS011;47927;42.646;23.096;2023-03-19T11:06:37;9.50;;;3.78;;
61962;SDS011;47927;42.646;23.096;2023-03-19T11:11:42;10.93;;;3.83;;
61962;SDS011;47927;42.646;23.096;2023-03-19T11:14:08;9.02;;;3.72;;
61962;SDS011;47927;42.646;23.096;2023-03-19T11:17:02;11.98;;;3.90;;
61962;SDS011;47927;42.646;23.096;2023-03-19T11:19:48;9.95;;;3.83;;
61962;SDS011;47927;42.646;23.096;2023-03-19T11:22:19;9.32;;;3.90;;
61962;SDS011;47927;42.646;23.096;2023-03-19T11:24:58;8.93;;;3.95;;
61962;SDS011;47927;42.646;23.096;2023-03-19T11:27:26;12.57;;;4.30;;
61962;SDS011;47927;42.646;23.096;2023-03-19T11:29:54;7.57;;;3.50;;
61962;SDS011;47927;42.646;23.096;2023-03-19T11:35:10;13.18;;;4.20;;
61962;SDS011;47927;42.646;23.096;2023-03-19T11:37:57;11.13;;;4.35;;
61962;SDS011;47927;42.646;23.096;2023-03-19T11:51:21;9.55;;;3.60;;
61962;SDS011;47927;42.646;23.096;2023-03-19T11:56:52;7.07;;;3.60;;
61962;SDS011;47927;42.646;23.096;2023-03-19T11:59:57;9.30;;;3.30;;
61962;SDS011;47927;42.646;23.096;2023-03-19T12:07:55;6.27;;;3.50;;
61962;SDS011;47927;42.646;23.096;2023-03-19T12:27:55;8.93;;;3.05;;
61962;SDS011;47927;42.646;23.096;2023-03-19T12:30:29;8.88;;;3.25;;
61962;SDS011;47927;42.646;23.096;2023-03-19T12:33:08;10.30;;;3.45;;
61962;SDS011;47927;42.646;23.096;2023-03-19T12:35:35;7.35;;;3.17;;
61962;SDS011;47927;42.646;23.096;2023-03-19T12:41:02;6.78;;;4.57;;
61962;SDS011;47927;42.646;23.096;2023-03-19T12:46:14;12.68;;;7.18;;
61962;SDS011;47927;42.646;23.096;2023-03-19T12:51:35;6.32;;;2.60;;
61962;SDS011;47927;42.646;23.096;2023-03-19T12:57:05;6.03;;;2.60;;
61962;SDS011;47927;42.646;23.096;2023-03-19T12:59:42;10.95;;;2.80;;
61962;SDS011;47927;42.646;23.096;2023-03-19T13:04:53;9.38;;;3.28;;
61962;SDS011;47927;42.646;23.096;2023-03-19T13:07:32;8.15;;;2.75;;
61962;SDS011;47927;42.646;23.096;2023-03-19T13:10:11;7.70;;;2.67;;
61962;SDS011;47927;42.646;23.096;2023-03-19T13:12:42;7.82;;;2.83;;
61962;SDS011;47927;42.646;23.096;2023-03-19T13:15:18;5.82;;;2.55;;
61962;SDS011;47927;42.646;23.096;2023-03-19T13:22:59;4.72;;;2.13;;
61962;SDS011;47927;42.646;23.096;2023-03-19T13:25:30;7.35;;;2.55;;
61962;SDS011;47927;42.646;23.096;2023-03-19T13:28:01;6.40;;;2.58;;
61962;SDS011;47927;42.646;23.096;2023-03-19T13:30:35;4.00;;;2.20;;
61962;SDS011;47927;42.646;23.096;2023-03-19T13:33:05;5.33;;;2.20;;
61962;SDS011;47927;42.646;23.096;2023-03-19T13:43:40;4.15;;;1.88;;
61962;SDS011;47927;42.646;23.096;2023-03-19T13:59:26;5.63;;;2.25;;
61962;SDS011;47927;42.646;23.096;2023-03-19T14:01:54;6.25;;;2.33;;
61962;SDS011;47927;42.646;23.096;2023-03-19T14:04:33;4.38;;;2.13;;
61962;SDS011;47927;42.646;23.096;2023-03-19T14:12:34;7.07;;;2.10;;
61962;SDS011;47927;42.646;23.096;2023-03-19T14:15:03;5.53;;;2.13;;
61962;SDS011;47927;42.646;23.096;2023-03-19T14:25:26;5.38;;;2.00;;
61962;SDS011;47927;42.646;23.096;2023-03-19T14:28:14;5.35;;;1.98;;
61962;SDS011;47927;42.646;23.096;2023-03-19T14:30:46;5.95;;;1.90;;
61962;SDS011;47927;42.646;23.096;2023-03-19T14:33:22;3.63;;;1.92;;
61962;SDS011;47927;42.646;23.096;2023-03-19T14:35:53;4.28;;;2.17;;
61962;SDS011;47927;42.646;23.096;2023-03-19T14:38:28;4.25;;;1.75;;
61962;SDS011;47927;42.646;23.096;2023-03-19T14:41:01;5.10;;;1.80;;
61962;SDS011;47927;42.646;23.096;2023-03-19T14:52:30;5.45;;;2.03;;
61962;SDS011;47927;42.646;23.096;2023-03-19T14:54:59;4.93;;;1.70;;
61962;SDS011;47927;42.646;23.096;2023-03-19T14:57:27;5.50;;;1.92;;
61962;SDS011;47927;42.646;23.096;2023-03-19T14:59:55;4.95;;;1.77;;
61962;SDS011;47927;42.646;23.096;2023-03-19T15:04:58;4.95;;;1.88;;
61962;SDS011;47927;42.646;23.096;2023-03-19T15:07:31;3.97;;;1.70;;
61962;SDS011;47927;42.646;23.096;2023-03-19T15:10:03;3.47;;;1.52;;
61962;SDS011;47927;42.646;23.096;2023-03-19T15:12:38;3.75;;;1.50;;
61962;SDS011;47927;42.646;23.096;2023-03-19T15:15:19;4.22;;;1.70;;
61962;SDS011;47927;42.646;23.096;2023-03-19T15:17:58;4.85;;;1.83;;
61962;SDS011;47927;42.646;23.096;2023-03-19T15:20:46;6.57;;;1.70;;
61962;SDS011;47927;42.646;23.096;2023-03-19T15:23:19;3.25;;;1.65;;
61962;SDS011;47927;42.646;23.096;2023-03-19T15:25:48;2.28;;;1.27;;
61962;SDS011;47927;42.646;23.096;2023-03-19T15:28:47;3.00;;;1.40;;
61962;SDS011;47927;42.646;23.096;2023-03-19T15:31:17;2.55;;;1.40;;
61962;SDS011;47927;42.646;23.096;2023-03-19T15:33:43;5.47;;;1.50;;
61962;SDS011;47927;42.646;23.096;2023-03-19T15:36:15;6.18;;;1.67;;
61962;SDS011;47927;42.646;23.096;2023-03-19T15:41:17;3.00;;;1.30;;
61962;SDS011;47927;42.646;23.096;2023-03-19T15:43:44;4.60;;;1.58;;
61962;SDS011;47927;42.646;23.096;2023-03-19T15:46:11;5.65;;;1.75;;
61962;SDS011;47927;42.646;23.096;2023-03-19T15:48:54;3.65;;;1.40;;
61962;SDS011;47927;42.646;23.096;2023-03-19T15:51:34;2.95;;;1.27;;
61962;SDS011;47927;42.646;23.096;2023-03-19T15:54:00;6.30;;;1.80;;
61962;SDS011;47927;42.646;23.096;2023-03-19T15:56:27;4.68;;;1.45;;
61962;SDS011;47927;42.646;23.096;2023-03-19T15:58:54;4.22;;;1.52;;
61962;SDS011;47927;42.646;23.096;2023-03-19T16:01:22;3.42;;;1.52;;
61962;SDS011;47927;42.646;23.096;2023-03-19T16:03:49;5.07;;;1.58;;
61962;SDS011;47927;42.646;23.096;2023-03-19T16:06:23;2.97;;;1.20;;
61962;SDS011;47927;42.646;23.096;2023-03-19T16:09:05;3.58;;;1.55;;
61962;SDS011;47927;42.646;23.096;2023-03-19T16:11:43;6.45;;;2.22;;
61962;SDS011;47927;42.646;23.096;2023-03-19T16:14:15;4.60;;;1.70;;
61962;SDS011;47927;42.646;23.096;2023-03-19T16:16:45;8.15;;;2.85;;
61962;SDS011;47927;42.646;23.096;2023-03-19T16:21:56;4.20;;;1.88;;
61962;SDS011;47927;42.646;23.096;2023-03-19T16:24:35;2.97;;;1.50;;
61962;SDS011;47927;42.646;23.096;2023-03-19T16:27:15;4.45;;;1.70;;
61962;SDS011;47927;42.646;23.096;2023-03-19T16:29:43;5.13;;;1.88;;
61962;SDS011;47927;42.646;23.096;2023-03-19T16:34:39;7.53;;;3.45;;
61962;SDS011;47927;42.646;23.096;2023-03-19T16:37:23;8.57;;;3.63;;
61962;SDS011;47927;42.646;23.096;2023-03-19T16:39:53;5.47;;;2.58;;
61962;SDS011;47927;42.646;23.096;2023-03-19T16:44:53;5.22;;;2.30;;
61962;SDS011;47927;42.646;23.096;2023-03-19T16:47:20;4.53;;;2.47;;
61962;SDS011;47927;42.646;23.096;2023-03-19T16:49:46;7.78;;;2.67;;
61962;SDS011;47927;42.646;23.096;2023-03-19T16:52:13;10.32;;;3.65;;
61962;SDS011;47927;42.646;23.096;2023-03-19T16:54:43;12.32;;;4.25;;
61962;SDS011;47927;42.646;23.096;2023-03-19T16:57:13;8.18;;;2.78;;
61962;SDS011;47927;42.646;23.096;2023-03-19T16:59:40;7.45;;;3.22;;
61962;SDS011;47927;42.646;23.096;2023-03-19T17:02:09;5.32;;;2.67;;
61962;SDS011;47927;42.646;23.096;2023-03-19T17:04:35;6.00;;;2.85;;
61962;SDS011;47927;42.646;23.096;2023-03-19T17:07:01;8.07;;;2.60;;
61962;SDS011;47927;42.646;23.096;2023-03-19T17:09:26;7.07;;;2.90;;
61962;SDS011;47927;42.646;23.096;2023-03-19T17:11:53;4.70;;;2.15;;
61962;SDS011;47927;42.646;23.096;2023-03-19T17:14:19;5.03;;;2.30;;
61962;SDS011;47927;42.646;23.096;2023-03-19T17:16:46;3.90;;;1.90;;
61962;SDS011;47927;42.646;23.096;2023-03-19T17:19:15;4.95;;;2.28;;